sim
Sign-in with your pilot id or email,
or register
Callsign
Passwort

Schedule Details

Flight Number: OEC75811
Departure: Helsinki Vantaa Airport (EFHK) at 02:00 UTC
Arrival: Munich Airport (EDDM) at 04:17 UTC

Weather Information
Getting current METAR information for EFHK 221650Z 21008KT CAVOK 11/10 Q1007 NOSIG
Getting current METAR information for EDDM 221650Z 07002KT 9999 FEW040CB 20/15 Q1010 NOSIG

Schedule Frequency

Route Map